sensor_id;sensor_type;location;lat;lon;timestamp;pressure;altitude;pressure_sealevel;temperature;humidity
47712;BME280;57457;51.634;5.886;2023-08-06T00:00:33;100100;;;16.3;86.4
47712;BME280;57457;51.634;5.886;2023-08-06T00:13:52;100100;;;16.3;86.5
47712;BME280;57457;51.634;5.886;2023-08-06T00:27:12;100100;;;16.4;86.5
47712;BME280;57457;51.634;5.886;2023-08-06T00:40:32;100100;;;16.4;86.3
47712;BME280;57457;51.634;5.886;2023-08-06T00:53:52;100100;;;16.4;86.3
47712;BME280;57457;51.634;5.886;2023-08-06T01:07:12;100100;;;16.4;86.3
47712;BME280;57457;51.634;5.886;2023-08-06T01:33:51;100100;;;16.4;86.3
47712;BME280;57457;51.634;5.886;2023-08-06T01:47:11;100100;;;16.5;86.4
47712;BME280;57457;51.634;5.886;2023-08-06T02:00:31;100100;;;16.5;86.4
47712;BME280;57457;51.634;5.886;2023-08-06T02:13:51;100100;;;16.5;86.3
47712;BME280;57457;51.634;5.886;2023-08-06T02:27:11;100100;;;16.5;86.3
47712;BME280;57457;51.634;5.886;2023-08-06T02:40:30;100100;;;16.4;86.6
47712;BME280;57457;51.634;5.886;2023-08-06T02:53:50;100100;;;16.4;86.8
47712;BME280;57457;51.634;5.886;2023-08-06T03:07:10;100100;;;16.4;86.8
47712;BME280;57457;51.634;5.886;2023-08-06T03:20:30;100100;;;16.4;86.5
47712;BME280;57457;51.634;5.886;2023-08-06T03:33:50;100100;;;16.3;86.6
47712;BME280;57457;51.634;5.886;2023-08-06T03:47:09;100100;;;16.3;86.7
47712;BME280;57457;51.634;5.886;2023-08-06T04:00:29;100100;;;16.2;86.9
47712;BME280;57457;51.634;5.886;2023-08-06T04:13:49;100100;;;16.1;86.7
47712;BME280;57457;51.634;5.886;2023-08-06T04:27:09;100100;;;16.0;86.7
47712;BME280;57457;51.634;5.886;2023-08-06T04:40:29;100100;;;15.8;87.0
47712;BME280;57457;51.634;5.886;2023-08-06T04:53:48;100100;;;15.7;87.3
47712;BME280;57457;51.634;5.886;2023-08-06T05:07:08;100100;;;15.6;87.7
47712;BME280;57457;51.634;5.886;2023-08-06T05:20:28;100100;;;15.6;88.1
47712;BME280;57457;51.634;5.886;2023-08-06T05:33:48;100100;;;15.8;88.2
47712;BME280;57457;51.634;5.886;2023-08-06T05:47:08;100100;;;16.1;88.0
47712;BME280;57457;51.634;5.886;2023-08-06T06:00:28;100100;;;16.5;87.6
47712;BME280;57457;51.634;5.886;2023-08-06T06:13:47;100100;;;16.8;86.5
47712;BME280;57457;51.634;5.886;2023-08-06T06:27:07;100100;;;17.2;85.4
47712;BME280;57457;51.634;5.886;2023-08-06T06:40:27;100200;;;17.6;84.2
47712;BME280;57457;51.634;5.886;2023-08-06T06:53:47;100200;;;18.0;83.0
47712;BME280;57457;51.634;5.886;2023-08-06T07:07:07;100200;;;18.4;82.8
47712;BME280;57457;51.634;5.886;2023-08-06T07:20:26;100200;;;18.7;82.2
47712;BME280;57457;51.634;5.886;2023-08-06T07:33:46;100200;;;19.0;82.0
47712;BME280;57457;51.634;5.886;2023-08-06T07:47:06;100200;;;19.2;83.3
47712;BME280;57457;51.634;5.886;2023-08-06T08:00:26;100200;;;18.9;84.4
47712;BME280;57457;51.634;5.886;2023-08-06T08:13:46;100200;;;18.6;85.1
47712;BME280;57457;51.634;5.886;2023-08-06T08:27:05;100200;;;18.4;84.4
47712;BME280;57457;51.634;5.886;2023-08-06T08:40:25;100200;;;18.3;84.9
47712;BME280;57457;51.634;5.886;2023-08-06T08:53:45;100300;;;18.0;85.9
47712;BME280;57457;51.634;5.886;2023-08-06T09:07:05;100300;;;17.8;85.9
47712;BME280;57457;51.634;5.886;2023-08-06T09:20:25;100300;;;17.5;85.3
47712;BME280;57457;51.634;5.886;2023-08-06T09:33:44;100300;;;17.0;86.1
47712;BME280;57457;51.634;5.886;2023-08-06T10:13:44;100300;;;16.2;87.8
47712;BME280;57457;51.634;5.886;2023-08-06T10:27:04;100400;;;16.1;87.8
47712;BME280;57457;51.634;5.886;2023-08-06T10:40:24;100400;;;16.2;87.8
47712;BME280;57457;51.634;5.886;2023-08-06T11:20:23;100400;;;16.6;87.0
47712;BME280;57457;51.634;5.886;2023-08-06T11:33:43;100400;;;16.6;86.7
47712;BME280;57457;51.634;5.886;2023-08-06T11:47:03;100400;;;16.6;86.9
47712;BME280;57457;51.634;5.886;2023-08-06T12:00:22;100400;;;16.6;87.1
47712;BME280;57457;51.634;5.886;2023-08-06T12:13:42;100400;;;16.6;87.2
47712;BME280;57457;51.634;5.886;2023-08-06T12:40:22;100500;;;16.7;87.2
47712;BME280;57457;51.634;5.886;2023-08-06T12:53:42;100500;;;16.8;86.9
47712;BME280;57457;51.634;5.886;2023-08-06T13:20:21;100500;;;16.8;87.3
47712;BME280;57457;51.634;5.886;2023-08-06T13:33:41;100500;;;16.8;87.0
47712;BME280;57457;51.634;5.886;2023-08-06T13:47:01;100500;;;16.8;86.4
47712;BME280;57457;51.634;5.886;2023-08-06T14:00:21;100500;;;16.7;86.2
47712;BME280;57457;51.634;5.886;2023-08-06T14:13:40;100600;;;16.6;86.6
47712;BME280;57457;51.634;5.886;2023-08-06T14:27:00;100600;;;16.5;86.4
47712;BME280;57457;51.634;5.886;2023-08-06T14:40:20;100600;;;16.5;86.3
47712;BME280;57457;51.634;5.886;2023-08-06T15:07:00;100600;;;16.3;86.9
47712;BME280;57457;51.634;5.886;2023-08-06T15:20:20;100600;;;16.2;87.3
47712;BME280;57457;51.634;5.886;2023-08-06T15:33:39;100600;;;16.2;87.6
47712;BME280;57457;51.634;5.886;2023-08-06T15:46:59;100600;;;16.2;87.7
47712;BME280;57457;51.634;5.886;2023-08-06T16:00:19;100700;;;16.3;87.6
47712;BME280;57457;51.634;5.886;2023-08-06T16:26:59;100700;;;16.3;87.5
47712;BME280;57457;51.634;5.886;2023-08-06T16:40:18;100700;;;16.2;87.6
47712;BME280;57457;51.634;5.886;2023-08-06T17:06:58;100800;;;16.0;87.5
47712;BME280;57457;51.634;5.886;2023-08-06T17:33:38;100800;;;15.8;87.7
47712;BME280;57457;51.634;5.886;2023-08-06T17:46:57;100800;;;15.7;87.6
47712;BME280;57457;51.634;5.886;2023-08-06T18:13:37;100900;;;15.5;87.6
47712;BME280;57457;51.634;5.886;2023-08-06T18:53:36;100900;;;15.3;87.4
47712;BME280;57457;51.634;5.886;2023-08-06T19:46:56;100900;;;14.8;87.5
47712;BME280;57457;51.634;5.886;2023-08-06T20:53:35;100900;;;14.3;88.6
47712;BME280;57457;51.634;5.886;2023-08-06T21:33:34;100900;;;14.3;88.2
47712;BME280;57457;51.634;5.886;2023-08-06T21:46:54;100900;;;14.3;87.9
47712;BME280;57457;51.634;5.886;2023-08-06T22:26:54;100900;;;14.2;88.5
47712;BME280;57457;51.634;5.886;2023-08-06T23:20:13;101000;;;14.1;88.7
47712;BME280;57457;51.634;5.886;2023-08-06T23:33:33;101000;;;14.1;88.6
